createdAt,value
2019-04-03T00:01:50.594Z,42.30
2019-04-03T00:06:25.608Z,42.40
2019-04-03T00:10:58.662Z,42.10
2019-04-03T00:15:30.215Z,42.80
2019-04-03T00:20:02.067Z,43.00
2019-04-03T00:24:34.470Z,43.60
2019-04-03T00:29:06.614Z,42.20
2019-04-03T00:33:38.667Z,43.00
2019-04-03T00:38:09.349Z,42.20
2019-04-03T00:42:42.626Z,42.50
2019-04-03T00:47:17.772Z,43.10
2019-04-03T00:51:52.234Z,42.70
2019-04-03T00:56:26.667Z,42.40
2019-04-03T01:01:20.699Z,42.40
2019-04-03T01:05:52.843Z,42.90
2019-04-03T01:10:25.681Z,42.90
2019-04-03T01:15:01.082Z,42.80
2019-04-03T01:19:36.133Z,42.70
2019-04-03T01:24:08.594Z,41.70
2019-04-03T01:28:42.488Z,43.30
2019-04-03T01:33:20.684Z,42.80
2019-04-03T01:37:54.206Z,43.30
2019-04-03T01:43:05.130Z,43.60
2019-04-03T01:47:40.773Z,43.20
2019-04-03T01:52:12.573Z,42.60
2019-04-03T01:56:44.677Z,43.80
2019-04-03T02:01:17.320Z,43.80
2019-04-03T02:05:52.470Z,44.50
2019-04-03T02:10:43.229Z,44.50
2019-04-03T02:15:17.144Z,43.90
2019-04-03T02:19:52.719Z,44.20
2019-04-03T02:24:23.961Z,47.20
2019-04-03T02:29:00.266Z,45.90
2019-04-03T02:33:32.220Z,44.50
2019-04-03T02:38:04.707Z,45.10
2019-04-03T02:42:40.573Z,46.20
2019-04-03T02:47:12.895Z,46.20
2019-04-03T02:51:45.225Z,46.40
2019-04-03T02:56:17.815Z,47.00
2019-04-03T03:00:52.808Z,46.80
2019-04-03T03:05:29.183Z,47.50
2019-04-03T03:10:02.437Z,47.50
2019-04-03T03:14:34.087Z,47.10
2019-04-03T03:19:04.790Z,48.20
2019-04-03T03:23:37.709Z,47.20
2019-04-03T03:28:15.274Z,47.30
2019-04-03T03:32:49.693Z,47.50
2019-04-03T03:37:24.203Z,48.90
2019-04-03T03:42:05.377Z,48.10
2019-04-03T03:46:40.674Z,47.80
2019-04-03T03:51:16.433Z,48.50
2019-04-03T03:55:56.906Z,48.80
2019-04-03T04:00:31.839Z,48.30
2019-04-03T04:05:03.572Z,50.30
2019-04-03T04:09:40.528Z,49.40
2019-04-03T04:14:12.767Z,49.80
2019-04-03T04:18:45.195Z,49.90
2019-04-03T04:23:16.561Z,49.60
2019-04-03T04:27:49.136Z,49.90
2019-04-03T04:32:24.313Z,51.60
2019-04-03T04:37:02.153Z,51.50
2019-04-03T04:41:52.888Z,50.00
2019-04-03T04:46:25.251Z,51.10
2019-04-03T04:51:00.347Z,50.70
2019-04-03T04:55:34.554Z,49.80
2019-04-03T05:00:08.929Z,50.40
2019-04-03T05:04:43.519Z,50.90
2019-04-03T05:09:20.274Z,51.10
2019-04-03T05:13:52.618Z,49.70
2019-04-03T05:18:24.722Z,50.10
2019-04-03T05:22:56.509Z,49.40
2019-04-03T05:27:34.449Z,49.70
2019-04-03T05:32:13.046Z,48.00
2019-04-03T05:36:44.408Z,49.30
2019-04-03T05:41:20.132Z,49.90
2019-04-03T05:45:52.637Z,49.00
2019-04-03T05:50:26.366Z,49.20
2019-04-03T05:54:57.610Z,47.70
2019-04-03T05:59:29.442Z,47.50
2019-04-03T06:04:02.464Z,48.20
2019-04-03T06:08:35.217Z,47.60
2019-04-03T06:13:08.948Z,47.90
2019-04-03T06:17:43.702Z,47.30
2019-04-03T06:22:22.003Z,44.30
2019-04-03T06:27:13.656Z,46.40
2019-04-03T06:31:45.395Z,46.30
2019-04-03T06:36:18.217Z,45.70
2019-04-03T06:40:52.925Z,45.30
2019-04-03T06:45:26.176Z,46.00
2019-04-03T06:50:00.392Z,45.10
2019-04-03T06:54:34.812Z,44.40
2019-04-03T06:59:09.456Z,45.00
2019-04-03T07:03:41.791Z,44.50
2019-04-03T07:08:13.780Z,44.40
2019-04-03T07:13:04.545Z,43.60
2019-04-03T07:17:38.759Z,43.50
2019-04-03T07:26:41.754Z,43.60
2019-04-03T07:31:33.425Z,43.10
2019-04-03T07:36:24.358Z,43.60
2019-04-03T07:40:56.895Z,43.50
2019-04-03T07:50:22.479Z,41.60
2019-04-03T07:54:56.866Z,41.10
2019-04-03T08:04:05.394Z,40.60
2019-04-03T08:13:24.757Z,39.70
2019-04-03T08:18:02.208Z,40.20
2019-04-03T08:22:35.153Z,39.70
2019-04-03T08:27:08.796Z,39.30
2019-04-03T08:31:43.146Z,39.40
2019-04-03T08:36:23.977Z,41.20
2019-04-03T08:40:51.449Z,38.40
2019-04-03T08:45:27.526Z,37.90
2019-04-03T08:50:06.925Z,38.60
2019-04-03T08:54:43.017Z,38.10
2019-04-03T08:59:15.949Z,38.20
2019-04-03T09:03:53.805Z,37.80
2019-04-03T09:08:30.259Z,37.00
2019-04-03T09:13:16.155Z,38.00
2019-04-03T09:17:42.941Z,36.60
2019-04-03T09:22:13.518Z,36.30
2019-04-03T09:26:48.150Z,36.20
2019-04-03T09:31:22.032Z,35.70
2019-04-03T09:35:53.354Z,36.10
2019-04-03T09:40:33.983Z,34.80
2019-04-03T09:45:06.192Z,34.80
2019-04-03T09:49:42.284Z,34.30
2019-04-03T09:54:11.566Z,34.10
2019-04-03T09:58:43.584Z,34.10
2019-04-03T10:03:15.359Z,34.70
2019-04-03T10:07:47.158Z,34.20
2019-04-03T10:12:19.100Z,34.80
2019-04-03T10:16:51.887Z,33.20
2019-04-03T10:21:48.179Z,33.00
2019-04-03T10:30:53.172Z,32.70
2019-04-03T10:35:31.717Z,31.70
2019-04-03T10:40:04.329Z,32.40
2019-04-03T10:44:35.924Z,31.10
2019-04-03T10:49:07.840Z,32.60
2019-04-03T10:53:42.199Z,31.40
2019-04-03T10:58:12.357Z,31.40
2019-04-03T11:03:04.736Z,30.90
2019-04-03T11:07:39.060Z,30.70
2019-04-03T11:12:12.639Z,30.20
2019-04-03T11:16:45.483Z,32.80
2019-04-03T11:21:22.090Z,30.50
2019-04-03T11:25:51.648Z,31.00
2019-04-03T11:30:25.635Z,30.90
2019-04-03T11:35:02.982Z,31.10
2019-04-03T11:39:37.453Z,31.30
2019-04-03T11:44:10.506Z,30.00
2019-04-03T11:48:43.826Z,31.00
2019-04-03T11:53:15.115Z,30.50
2019-04-03T11:57:49.426Z,30.40
2019-04-03T12:02:23.855Z,30.80
2019-04-03T12:06:56.335Z,30.90
2019-04-03T12:11:32.731Z,30.00
2019-04-03T12:16:04.135Z,32.70
2019-04-03T12:20:34.828Z,30.10
2019-04-03T12:25:07.235Z,30.00
2019-04-03T12:34:32.911Z,30.00
2019-04-03T12:39:07.674Z,29.60
2019-04-03T12:43:43.235Z,30.00
2019-04-03T12:48:17.419Z,30.20
2019-04-03T12:52:50.830Z,30.30
2019-04-03T12:57:23.287Z,30.10
2019-04-03T13:01:55.207Z,29.90
2019-04-03T13:06:27.835Z,30.40
2019-04-03T13:10:59.799Z,31.00
2019-04-03T13:15:31.141Z,30.70
2019-04-03T13:20:05.624Z,31.30
2019-04-03T13:24:43.158Z,30.30
2019-04-03T13:29:15.351Z,30.80
2019-04-03T13:33:47.335Z,31.30
2019-04-03T13:38:21.764Z,30.50
2019-04-03T13:42:55.439Z,30.80
2019-04-03T13:47:30.997Z,30.60
2019-04-03T13:52:08.064Z,30.50
2019-04-03T13:56:43.963Z,30.80
2019-04-03T14:01:15.112Z,31.30
2019-04-03T14:05:47.899Z,30.70
2019-04-03T14:10:26.141Z,30.90
2019-04-03T14:14:59.744Z,30.90
2019-04-03T14:19:43.720Z,30.80
2019-04-03T14:24:08.263Z,30.90
2019-04-03T14:28:43.146Z,30.80
2019-04-03T14:33:18.909Z,30.70
2019-04-03T14:37:58.314Z,31.40
2019-04-03T14:42:33.145Z,30.70
2019-04-03T14:47:06.992Z,33.00
2019-04-03T14:51:44.103Z,30.60
2019-04-03T14:56:16.761Z,31.50
2019-04-03T15:00:50.795Z,30.40
2019-04-03T15:05:24.149Z,30.60
2019-04-03T15:09:57.216Z,30.70
2019-04-03T15:14:30.758Z,30.80
2019-04-03T15:19:03.712Z,31.40
2019-04-03T15:23:40.165Z,30.40
2019-04-03T15:28:10.829Z,31.00
2019-04-03T15:32:43.383Z,31.30
2019-04-03T15:37:35.096Z,31.80
2019-04-03T15:42:10.641Z,32.10
2019-04-03T15:46:43.807Z,31.20
2019-04-03T15:51:15.501Z,32.10
2019-04-03T15:55:48.030Z,31.30
2019-04-03T16:00:23.548Z,31.40
2019-04-03T16:04:58.455Z,31.90
2019-04-03T16:09:30.310Z,32.30
2019-04-03T16:14:03.901Z,32.50
2019-04-03T16:18:36.211Z,32.40
2019-04-03T16:23:11.186Z,32.20
2019-04-03T16:27:44.376Z,32.50
2019-04-03T16:32:16.011Z,32.60
2019-04-03T16:36:51.687Z,32.20
2019-04-03T16:41:45.188Z,32.80
2019-04-03T16:46:15.944Z,32.80
2019-04-03T16:50:52.319Z,33.00
2019-04-03T16:55:46.682Z,34.10
2019-04-03T17:00:24.216Z,32.80
2019-04-03T17:04:58.463Z,33.70
2019-04-03T17:09:37.611Z,33.30
2019-04-03T17:14:12.071Z,33.20
2019-04-03T17:19:03.732Z,33.40
2019-04-03T17:23:34.852Z,33.60
2019-04-03T17:28:10.720Z,34.20
2019-04-03T17:32:46.245Z,33.80
2019-04-03T17:37:22.874Z,33.90
2019-04-03T17:41:53.894Z,34.40
2019-04-03T17:46:27.620Z,34.20
2019-04-03T17:51:02.276Z,34.10
2019-04-03T17:55:32.165Z,34.00
2019-04-03T18:00:26.646Z,34.20
2019-04-03T18:04:59.054Z,34.10
2019-04-03T18:09:32.637Z,34.30
2019-04-03T18:14:26.593Z,36.70
2019-04-03T18:19:04.930Z,34.40
2019-04-03T18:23:39.836Z,34.20
2019-04-03T18:28:12.747Z,34.70
2019-04-03T18:33:05.995Z,34.60
2019-04-03T18:37:43.248Z,34.40
2019-04-03T18:42:16.771Z,34.80
2019-04-03T18:46:50.758Z,34.60
2019-04-03T18:51:24.044Z,34.80
2019-04-03T18:55:55.372Z,34.50
2019-04-03T19:00:28.830Z,34.80
2019-04-03T19:05:02.865Z,35.20
2019-04-03T19:09:35.698Z,35.30
2019-04-03T19:14:07.061Z,35.50
2019-04-03T19:18:42.029Z,36.00
2019-04-03T19:23:13.877Z,35.70
2019-04-03T19:27:57.420Z,35.60
2019-04-03T19:32:32.363Z,35.90
2019-04-03T19:37:24.964Z,37.60
2019-04-03T19:41:58.242Z,35.60
2019-04-03T19:46:35.132Z,35.70
2019-04-03T19:51:10.680Z,35.80
2019-04-03T19:55:42.646Z,36.20
2019-04-03T20:00:16.760Z,36.80
2019-04-03T20:04:50.969Z,36.40
2019-04-03T20:09:24.979Z,36.00
2019-04-03T20:13:55.480Z,36.70
2019-04-03T20:18:32.467Z,36.30
2019-04-03T20:23:06.570Z,36.10
2019-04-03T20:27:39.635Z,36.30
2019-04-03T20:32:13.363Z,36.30
2019-04-03T20:36:51.022Z,37.60
2019-04-03T20:41:23.080Z,37.50
2019-04-03T20:45:57.312Z,37.90
2019-04-03T20:50:31.853Z,35.70
2019-04-03T20:55:04.401Z,37.50
2019-04-03T20:59:33.907Z,37.80
2019-04-03T21:04:07.118Z,38.00
2019-04-03T21:08:39.265Z,37.60
2019-04-03T21:13:15.375Z,38.00
2019-04-03T21:27:33.756Z,38.20
2019-04-03T21:32:06.624Z,38.20
2019-04-03T21:36:39.270Z,38.50
2019-04-03T21:41:11.624Z,38.10
2019-04-03T21:45:50.190Z,38.50
2019-04-03T21:50:23.404Z,38.50
2019-04-03T21:54:58.753Z,38.80
2019-04-03T21:59:32.710Z,38.70
2019-04-03T22:04:24.679Z,38.70
2019-04-03T22:09:00.568Z,39.20
2019-04-03T22:13:34.778Z,39.40
2019-04-03T22:18:08.089Z,40.00
2019-04-03T22:22:40.252Z,39.40
2019-04-03T22:27:13.825Z,39.60
2019-04-03T22:31:48.337Z,39.70
2019-04-03T22:36:22.594Z,39.90
2019-04-03T22:40:54.372Z,40.20
2019-04-03T22:45:27.862Z,40.30
2019-04-03T22:54:35.849Z,40.40
2019-04-03T22:59:08.079Z,40.50
2019-04-03T23:03:39.991Z,40.60
2019-04-03T23:08:32.356Z,40.70
2019-04-03T23:13:05.259Z,41.20
2019-04-03T23:22:11.772Z,41.40
2019-04-03T23:26:43.449Z,41.40
2019-04-03T23:31:16.392Z,41.40
2019-04-03T23:40:36.146Z,41.70
2019-04-03T23:45:08.047Z,42.30
2019-04-03T23:49:41.205Z,42.10
2019-04-03T23:54:13.048Z,42.50
2019-04-03T23:59:14.598Z,41.90
